Kimberly Turecamo — WDC6838 — position and weather

sailwx.info

Track history (hours):
 
Tides and Currents Weather Stations Pressure Air Temp Water Temp Dewpoint Dewpoint Depression Visibility Wind Speed Wind Dir Waves Ship Positions

Kimberly Turecamo

More information available from US FCC via Universal Licensing System and Coast Guard Vessel Documentation Center.

Last reported at 2014-Sep-01 11:29 UTC. Time now 2014-Sep-01 13:53 UTC.
Position N 39°52' W 075°13'.

Length 33 m; draft 5 m.

Type: Tow > 200 m length. MMSI: 367061980.

Date/timePositionNaut miles runAvg speedWind from/ knotsBaromVisibWave heightAir tempDewpointWater temp
2014-Sep-01 11:29N 39°52' W 075°13'79 6.0
2014-Aug-31 22:13N 38°34' W 074°53'  
2014-Aug-27 00:28N 35°59' W 075°13'7 7.6
2014-Aug-26 23:33N 36°06' W 075°13'110 9.9
2014-Aug-26 12:24N 37°55' W 074°54'9 9.8
2014-Aug-26 11:28N 38°04' W 074°53'9 9.5
2014-Aug-26 10:33N 38°13' W 074°51'9 9.5
2014-Aug-26 09:33N 38°22' W 074°50'9 9.4
2014-Aug-26 08:33N 38°32' W 074°50'4610.6
2014-Aug-26 04:13N 39°13' W 075°17'39 2.8
2014-Aug-25 14:22N 39°52' W 075°13'0 0.1
2014-Aug-25 13:32N 39°52' W 075°14'0 0.0
2014-Aug-25 12:33N 39°52' W 075°14'0 0.0
2014-Aug-25 11:33N 39°52' W 075°14'0 0.0
2014-Aug-25 10:33N 39°52' W 075°14'0 0.0
2014-Aug-25 09:28N 39°52' W 075°14'0 0.0
2014-Aug-25 08:32N 39°52' W 075°14'0 0.0
2014-Aug-25 07:26N 39°52' W 075°13'0 0.0
2014-Aug-24 12:17N 39°52' W 075°14'0 0.0
2014-Aug-24 11:29N 39°52' W 075°14'0 0.0
2014-Aug-24 10:28N 39°52' W 075°14'0 0.0
2014-Aug-24 09:22N 39°52' W 075°14'0 0.0
2014-Aug-24 08:25N 39°52' W 075°14'0 0.0
2014-Aug-24 07:30N 39°52' W 075°14'2 0.1
2014-Aug-22 15:30N 39°51' W 075°16'2 1.7
2014-Aug-22 14:15N 39°52' W 075°13'0 0.0
2014-Aug-22 13:25N 39°52' W 075°13'  
Track history (hours):
 
Tides and Currents Weather Stations Pressure Air Temp Water Temp Dewpoint Dewpoint Depression Visibility Wind Speed Wind Dir Waves Ship Positions

Kimberly Turecamo

More information available from US FCC via Universal Licensing System and Coast Guard Vessel Documentation Center.

Last reported at 2014-Sep-01 11:29 UTC. Time now 2014-Sep-01 13:53 UTC.
Position N 39°52' W 075°13'.

Length 33 m; draft 5 m.

Type: Tow > 200 m length. MMSI: 367061980.

Date/timePositionNaut miles runAvg speedWind from/ knotsBaromVisibWave heightAir tempDewpointWater temp
2014-Sep-01 11:29N 39°52' W 075°13'79 6.0
2014-Aug-31 22:13N 38°34' W 074°53'  
2014-Aug-27 00:28N 35°59' W 075°13'7 7.6
2014-Aug-26 23:33N 36°06' W 075°13'110 9.9
2014-Aug-26 12:24N 37°55' W 074°54'9 9.8
2014-Aug-26 11:28N 38°04' W 074°53'9 9.5
2014-Aug-26 10:33N 38°13' W 074°51'9 9.5
2014-Aug-26 09:33N 38°22' W 074°50'9 9.4
2014-Aug-26 08:33N 38°32' W 074°50'4610.6
2014-Aug-26 04:13N 39°13' W 075°17'39 2.8
2014-Aug-25 14:22N 39°52' W 075°13'0 0.1
2014-Aug-25 13:32N 39°52' W 075°14'0 0.0
2014-Aug-25 12:33N 39°52' W 075°14'0 0.0
2014-Aug-25 11:33N 39°52' W 075°14'0 0.0
2014-Aug-25 10:33N 39°52' W 075°14'0 0.0
2014-Aug-25 09:28N 39°52' W 075°14'0 0.0
2014-Aug-25 08:32N 39°52' W 075°14'0 0.0
2014-Aug-25 07:26N 39°52' W 075°13'0 0.0
2014-Aug-24 12:17N 39°52' W 075°14'0 0.0
2014-Aug-24 11:29N 39°52' W 075°14'0 0.0
2014-Aug-24 10:28N 39°52' W 075°14'0 0.0
2014-Aug-24 09:22N 39°52' W 075°14'0 0.0
2014-Aug-24 08:25N 39°52' W 075°14'0 0.0
2014-Aug-24 07:30N 39°52' W 075°14'2 0.1
2014-Aug-22 15:30N 39°51' W 075°16'2 1.7
2014-Aug-22 14:15N 39°52' W 075°13'0 0.0
2014-Aug-22 13:25N 39°52' W 075°13'  

Dump ship's entire track history